Anaheim, California
Current Conditions -  °F | °C
As of 6:53 PM on Tuesday 21 Oct 2014 (Local Time) from KFUL Reporting Station
Clear Clear  
Wind Chill: 72°   Ceiling: Unl
Heat Index: 72°   Visibility: 10mi
Dew Point: 59°   Wind: 5mph
Humidity: 64%   Direction: 280°W
Pressure: 29.83"   Gusts: NA
Location:  33.83°N, 117.91°W
Report Text: KFUL 220153Z 28004KT 10SM CLR 22/15 A2983 RMK AO2 SLP100 T02220150
Loading
Personal Weather Stations






























Interactive Weather Map New forecast layout! Learn more

10-Day Weather Forecast

Advertisements
Track Severe Weather on mobile